sensor_id;sensor_type;location;lat;lon;timestamp;P1;durP1;ratioP1;P2;durP2;ratioP2
40669;SDS011;26355;45.528;9.234;2023-04-15T00:01:01;9.18;;;2.35;;
40669;SDS011;26355;45.528;9.234;2023-04-15T00:03:26;9.65;;;2.83;;
40669;SDS011;26355;45.528;9.234;2023-04-15T00:05:53;8.60;;;2.88;;
40669;SDS011;26355;45.528;9.234;2023-04-15T00:08:19;11.52;;;3.05;;
40669;SDS011;26355;45.528;9.234;2023-04-15T00:10:44;10.80;;;3.00;;
40669;SDS011;26355;45.528;9.234;2023-04-15T00:13:10;7.88;;;2.15;;
40669;SDS011;26355;45.528;9.234;2023-04-15T00:15:36;7.03;;;2.10;;
40669;SDS011;26355;45.528;9.234;2023-04-15T00:18:02;6.05;;;2.13;;
40669;SDS011;26355;45.528;9.234;2023-04-15T00:20:28;11.27;;;2.45;;
40669;SDS011;26355;45.528;9.234;2023-04-15T00:22:54;6.43;;;2.33;;
40669;SDS011;26355;45.528;9.234;2023-04-15T00:25:19;9.45;;;2.75;;
40669;SDS011;26355;45.528;9.234;2023-04-15T00:27:45;10.07;;;3.03;;
40669;SDS011;26355;45.528;9.234;2023-04-15T00:30:10;10.50;;;2.72;;
40669;SDS011;26355;45.528;9.234;2023-04-15T00:32:36;11.07;;;3.28;;
40669;SDS011;26355;45.528;9.234;2023-04-15T00:35:02;11.73;;;2.95;;
40669;SDS011;26355;45.528;9.234;2023-04-15T00:37:28;10.10;;;2.95;;
40669;SDS011;26355;45.528;9.234;2023-04-15T00:39:53;9.07;;;2.55;;
40669;SDS011;26355;45.528;9.234;2023-04-15T00:42:19;11.40;;;2.92;;
40669;SDS011;26355;45.528;9.234;2023-04-15T00:44:45;11.20;;;3.60;;
40669;SDS011;26355;45.528;9.234;2023-04-15T00:47:11;14.30;;;5.13;;
40669;SDS011;26355;45.528;9.234;2023-04-15T00:49:37;12.70;;;4.57;;
40669;SDS011;26355;45.528;9.234;2023-04-15T00:52:03;13.80;;;4.18;;
40669;SDS011;26355;45.528;9.234;2023-04-15T00:54:28;12.82;;;3.58;;
40669;SDS011;26355;45.528;9.234;2023-04-15T00:56:54;13.00;;;3.83;;
40669;SDS011;26355;45.528;9.234;2023-04-15T00:59:20;11.68;;;3.72;;
40669;SDS011;26355;45.528;9.234;2023-04-15T01:01:46;11.98;;;4.03;;
40669;SDS011;26355;45.528;9.234;2023-04-15T01:04:12;11.90;;;4.10;;
40669;SDS011;26355;45.528;9.234;2023-04-15T01:06:37;13.30;;;4.15;;
40669;SDS011;26355;45.528;9.234;2023-04-15T01:09:03;12.13;;;3.53;;
40669;SDS011;26355;45.528;9.234;2023-04-15T01:11:29;12.02;;;3.75;;
40669;SDS011;26355;45.528;9.234;2023-04-15T01:13:58;12.48;;;4.28;;
40669;SDS011;26355;45.528;9.234;2023-04-15T01:16:23;12.30;;;3.83;;
40669;SDS011;26355;45.528;9.234;2023-04-15T01:18:51;11.52;;;3.60;;
40669;SDS011;26355;45.528;9.234;2023-04-15T01:21:17;13.10;;;4.35;;
40669;SDS011;26355;45.528;9.234;2023-04-15T01:23:44;12.83;;;3.40;;
40669;SDS011;26355;45.528;9.234;2023-04-15T01:26:12;12.18;;;3.70;;
40669;SDS011;26355;45.528;9.234;2023-04-15T01:28:38;11.43;;;3.65;;
40669;SDS011;26355;45.528;9.234;2023-04-15T01:31:08;12.00;;;3.75;;
40669;SDS011;26355;45.528;9.234;2023-04-15T01:33:35;13.65;;;3.92;;
40669;SDS011;26355;45.528;9.234;2023-04-15T01:36:02;12.65;;;3.80;;
40669;SDS011;26355;45.528;9.234;2023-04-15T01:38:28;11.45;;;3.58;;
40669;SDS011;26355;45.528;9.234;2023-04-15T01:40:54;12.20;;;3.65;;
40669;SDS011;26355;45.528;9.234;2023-04-15T01:43:20;15.32;;;4.30;;
40669;SDS011;26355;45.528;9.234;2023-04-15T01:45:46;12.27;;;4.00;;
40669;SDS011;26355;45.528;9.234;2023-04-15T01:48:11;13.60;;;3.90;;
40669;SDS011;26355;45.528;9.234;2023-04-15T01:50:37;12.50;;;4.00;;
40669;SDS011;26355;45.528;9.234;2023-04-15T01:53:03;12.05;;;3.65;;
40669;SDS011;26355;45.528;9.234;2023-04-15T01:55:29;12.48;;;4.07;;
40669;SDS011;26355;45.528;9.234;2023-04-15T01:57:55;14.55;;;4.38;;
40669;SDS011;26355;45.528;9.234;2023-04-15T02:00:20;14.13;;;4.35;;
40669;SDS011;26355;45.528;9.234;2023-04-15T02:02:47;13.23;;;4.00;;
40669;SDS011;26355;45.528;9.234;2023-04-15T02:05:12;12.77;;;4.07;;
40669;SDS011;26355;45.528;9.234;2023-04-15T02:07:38;13.02;;;3.83;;
40669;SDS011;26355;45.528;9.234;2023-04-15T02:10:04;12.32;;;4.15;;
40669;SDS011;26355;45.528;9.234;2023-04-15T02:12:30;13.23;;;3.97;;
40669;SDS011;26355;45.528;9.234;2023-04-15T02:14:55;14.00;;;4.07;;
40669;SDS011;26355;45.528;9.234;2023-04-15T02:17:21;14.10;;;4.53;;
40669;SDS011;26355;45.528;9.234;2023-04-15T02:19:46;12.18;;;3.95;;
40669;SDS011;26355;45.528;9.234;2023-04-15T02:22:13;11.85;;;4.10;;
40669;SDS011;26355;45.528;9.234;2023-04-15T02:24:42;12.88;;;4.13;;
40669;SDS011;26355;45.528;9.234;2023-04-15T02:27:08;15.50;;;5.45;;
40669;SDS011;26355;45.528;9.234;2023-04-15T02:29:34;14.45;;;4.80;;
40669;SDS011;26355;45.528;9.234;2023-04-15T02:31:59;17.83;;;6.05;;
40669;SDS011;26355;45.528;9.234;2023-04-15T02:34:25;14.30;;;4.70;;
40669;SDS011;26355;45.528;9.234;2023-04-15T02:36:51;14.02;;;4.22;;
40669;SDS011;26355;45.528;9.234;2023-04-15T02:39:21;13.85;;;4.40;;
40669;SDS011;26355;45.528;9.234;2023-04-15T02:41:46;15.27;;;4.80;;
40669;SDS011;26355;45.528;9.234;2023-04-15T02:44:16;15.35;;;5.30;;
40669;SDS011;26355;45.528;9.234;2023-04-15T02:46:44;14.48;;;5.32;;
40669;SDS011;26355;45.528;9.234;2023-04-15T02:49:16;14.50;;;4.80;;
40669;SDS011;26355;45.528;9.234;2023-04-15T02:51:42;14.90;;;5.45;;
40669;SDS011;26355;45.528;9.234;2023-04-15T02:54:11;16.05;;;4.90;;
40669;SDS011;26355;45.528;9.234;2023-04-15T02:56:37;16.42;;;6.07;;
40669;SDS011;26355;45.528;9.234;2023-04-15T02:59:02;15.73;;;5.72;;
40669;SDS011;26355;45.528;9.234;2023-04-15T03:01:28;13.93;;;5.13;;
40669;SDS011;26355;45.528;9.234;2023-04-15T03:03:54;15.98;;;5.95;;
40669;SDS011;26355;45.528;9.234;2023-04-15T03:06:20;16.23;;;5.90;;
40669;SDS011;26355;45.528;9.234;2023-04-15T03:08:45;14.32;;;5.30;;
40669;SDS011;26355;45.528;9.234;2023-04-15T03:11:11;16.40;;;5.68;;
40669;SDS011;26355;45.528;9.234;2023-04-15T03:13:38;14.03;;;5.60;;
40669;SDS011;26355;45.528;9.234;2023-04-15T03:16:05;16.85;;;6.13;;
40669;SDS011;26355;45.528;9.234;2023-04-15T03:18:31;15.77;;;5.32;;
40669;SDS011;26355;45.528;9.234;2023-04-15T03:20:57;16.52;;;5.45;;
40669;SDS011;26355;45.528;9.234;2023-04-15T03:23:22;17.50;;;6.10;;
40669;SDS011;26355;45.528;9.234;2023-04-15T03:25:48;15.77;;;5.90;;
40669;SDS011;26355;45.528;9.234;2023-04-15T03:28:13;17.25;;;6.88;;
40669;SDS011;26355;45.528;9.234;2023-04-15T03:30:39;17.13;;;6.43;;
40669;SDS011;26355;45.528;9.234;2023-04-15T03:33:04;16.65;;;5.90;;
40669;SDS011;26355;45.528;9.234;2023-04-15T03:35:30;16.75;;;5.75;;
40669;SDS011;26355;45.528;9.234;2023-04-15T03:37:56;17.52;;;6.80;;
40669;SDS011;26355;45.528;9.234;2023-04-15T03:40:22;14.63;;;4.97;;
40669;SDS011;26355;45.528;9.234;2023-04-15T03:42:47;14.65;;;5.15;;
40669;SDS011;26355;45.528;9.234;2023-04-15T03:45:13;15.13;;;5.32;;
40669;SDS011;26355;45.528;9.234;2023-04-15T03:47:38;15.82;;;5.47;;
40669;SDS011;26355;45.528;9.234;2023-04-15T03:50:04;16.02;;;5.93;;
40669;SDS011;26355;45.528;9.234;2023-04-15T03:52:31;20.23;;;7.78;;
40669;SDS011;26355;45.528;9.234;2023-04-15T03:54:56;16.83;;;5.88;;
40669;SDS011;26355;45.528;9.234;2023-04-15T03:57:22;15.18;;;5.15;;
40669;SDS011;26355;45.528;9.234;2023-04-15T03:59:47;16.73;;;6.45;;
40669;SDS011;26355;45.528;9.234;2023-04-15T04:02:13;17.08;;;5.50;;
40669;SDS011;26355;45.528;9.234;2023-04-15T04:04:38;15.20;;;5.45;;
40669;SDS011;26355;45.528;9.234;2023-04-15T04:07:04;15.30;;;5.47;;
40669;SDS011;26355;45.528;9.234;2023-04-15T04:09:30;17.23;;;5.10;;
40669;SDS011;26355;45.528;9.234;2023-04-15T04:11:56;17.33;;;5.32;;
40669;SDS011;26355;45.528;9.234;2023-04-15T04:14:21;16.83;;;5.40;;
40669;SDS011;26355;45.528;9.234;2023-04-15T04:16:53;14.00;;;5.18;;
40669;SDS011;26355;45.528;9.234;2023-04-15T04:19:19;16.02;;;5.30;;
40669;SDS011;26355;45.528;9.234;2023-04-15T04:21:44;16.77;;;5.30;;
40669;SDS011;26355;45.528;9.234;2023-04-15T04:24:10;17.98;;;5.38;;
40669;SDS011;26355;45.528;9.234;2023-04-15T04:26:36;16.20;;;5.38;;
40669;SDS011;26355;45.528;9.234;2023-04-15T04:29:01;15.50;;;5.13;;
40669;SDS011;26355;45.528;9.234;2023-04-15T04:31:27;16.42;;;5.03;;
40669;SDS011;26355;45.528;9.234;2023-04-15T04:33:53;15.32;;;5.32;;
40669;SDS011;26355;45.528;9.234;2023-04-15T04:36:18;15.30;;;5.38;;
40669;SDS011;26355;45.528;9.234;2023-04-15T04:38:44;16.27;;;5.22;;
40669;SDS011;26355;45.528;9.234;2023-04-15T04:41:09;19.15;;;5.57;;
40669;SDS011;26355;45.528;9.234;2023-04-15T04:43:35;16.70;;;5.10;;
40669;SDS011;26355;45.528;9.234;2023-04-15T04:46:01;16.73;;;5.55;;
40669;SDS011;26355;45.528;9.234;2023-04-15T04:48:26;20.35;;;6.43;;
40669;SDS011;26355;45.528;9.234;2023-04-15T04:50:52;17.70;;;6.00;;
40669;SDS011;26355;45.528;9.234;2023-04-15T04:53:18;18.92;;;5.75;;
40669;SDS011;26355;45.528;9.234;2023-04-15T04:55:43;15.80;;;5.63;;
40669;SDS011;26355;45.528;9.234;2023-04-15T04:58:09;16.58;;;5.50;;
40669;SDS011;26355;45.528;9.234;2023-04-15T05:00:35;16.42;;;6.22;;
40669;SDS011;26355;45.528;9.234;2023-04-15T05:03:02;20.20;;;6.07;;
40669;SDS011;26355;45.528;9.234;2023-04-15T05:05:29;17.98;;;6.05;;
40669;SDS011;26355;45.528;9.234;2023-04-15T05:07:54;18.90;;;6.68;;
40669;SDS011;26355;45.528;9.234;2023-04-15T05:10:20;24.20;;;6.47;;
40669;SDS011;26355;45.528;9.234;2023-04-15T05:12:46;18.17;;;5.47;;
40669;SDS011;26355;45.528;9.234;2023-04-15T05:15:11;18.15;;;5.53;;
40669;SDS011;26355;45.528;9.234;2023-04-15T05:17:37;15.95;;;5.43;;
40669;SDS011;26355;45.528;9.234;2023-04-15T05:20:02;19.00;;;6.40;;
40669;SDS011;26355;45.528;9.234;2023-04-15T05:22:28;16.58;;;5.32;;
40669;SDS011;26355;45.528;9.234;2023-04-15T05:24:54;18.08;;;6.10;;
40669;SDS011;26355;45.528;9.234;2023-04-15T05:27:20;15.07;;;5.30;;
40669;SDS011;26355;45.528;9.234;2023-04-15T05:29:46;15.25;;;5.00;;
40669;SDS011;26355;45.528;9.234;2023-04-15T05:32:12;17.05;;;5.10;;
40669;SDS011;26355;45.528;9.234;2023-04-15T05:34:56;16.92;;;5.13;;
40669;SDS011;26355;45.528;9.234;2023-04-15T05:37:22;15.57;;;5.43;;
40669;SDS011;26355;45.528;9.234;2023-04-15T05:39:47;15.77;;;4.40;;
40669;SDS011;26355;45.528;9.234;2023-04-15T05:42:13;19.95;;;6.47;;
40669;SDS011;26355;45.528;9.234;2023-04-15T05:44:38;16.75;;;5.03;;
40669;SDS011;26355;45.528;9.234;2023-04-15T05:47:04;18.08;;;5.10;;
40669;SDS011;26355;45.528;9.234;2023-04-15T05:49:31;15.05;;;5.10;;
40669;SDS011;26355;45.528;9.234;2023-04-15T05:51:56;15.90;;;4.82;;
40669;SDS011;26355;45.528;9.234;2023-04-15T05:54:22;16.98;;;4.85;;
40669;SDS011;26355;45.528;9.234;2023-04-15T05:56:48;16.83;;;5.63;;
40669;SDS011;26355;45.528;9.234;2023-04-15T05:59:13;15.85;;;4.90;;
40669;SDS011;26355;45.528;9.234;2023-04-15T06:01:39;18.60;;;5.43;;
40669;SDS011;26355;45.528;9.234;2023-04-15T06:04:04;16.85;;;5.00;;
40669;SDS011;26355;45.528;9.234;2023-04-15T06:06:30;18.58;;;5.35;;
40669;SDS011;26355;45.528;9.234;2023-04-15T06:08:56;16.48;;;5.03;;
40669;SDS011;26355;45.528;9.234;2023-04-15T06:11:22;17.75;;;5.28;;
40669;SDS011;26355;45.528;9.234;2023-04-15T06:13:48;19.13;;;4.95;;
40669;SDS011;26355;45.528;9.234;2023-04-15T06:16:14;18.65;;;4.75;;
40669;SDS011;26355;45.528;9.234;2023-04-15T06:18:39;16.63;;;5.55;;
40669;SDS011;26355;45.528;9.234;2023-04-15T06:21:05;16.73;;;5.28;;
40669;SDS011;26355;45.528;9.234;2023-04-15T06:23:33;19.08;;;5.00;;
40669;SDS011;26355;45.528;9.234;2023-04-15T06:25:59;17.95;;;5.28;;
40669;SDS011;26355;45.528;9.234;2023-04-15T06:28:25;20.55;;;5.72;;
40669;SDS011;26355;45.528;9.234;2023-04-15T06:30:51;17.65;;;5.35;;
40669;SDS011;26355;45.528;9.234;2023-04-15T06:33:17;15.27;;;4.85;;
40669;SDS011;26355;45.528;9.234;2023-04-15T06:35:43;17.13;;;5.53;;
40669;SDS011;26355;45.528;9.234;2023-04-15T06:38:08;15.70;;;5.10;;
40669;SDS011;26355;45.528;9.234;2023-04-15T06:40:34;18.25;;;4.68;;
40669;SDS011;26355;45.528;9.234;2023-04-15T06:43:00;12.82;;;3.97;;
40669;SDS011;26355;45.528;9.234;2023-04-15T06:45:25;13.55;;;3.65;;
40669;SDS011;26355;45.528;9.234;2023-04-15T06:47:51;11.85;;;3.92;;
40669;SDS011;26355;45.528;9.234;2023-04-15T06:50:17;12.52;;;3.05;;
40669;SDS011;26355;45.528;9.234;2023-04-15T06:52:42;8.38;;;2.63;;
40669;SDS011;26355;45.528;9.234;2023-04-15T06:55:08;10.48;;;3.15;;
40669;SDS011;26355;45.528;9.234;2023-04-15T06:57:34;10.50;;;2.97;;
40669;SDS011;26355;45.528;9.234;2023-04-15T06:59:59;11.27;;;3.25;;
40669;SDS011;26355;45.528;9.234;2023-04-15T07:02:25;11.05;;;3.40;;
40669;SDS011;26355;45.528;9.234;2023-04-15T07:04:51;12.18;;;3.75;;
40669;SDS011;26355;45.528;9.234;2023-04-15T07:07:16;11.20;;;3.60;;
40669;SDS011;26355;45.528;9.234;2023-04-15T07:09:42;13.38;;;4.18;;
40669;SDS011;26355;45.528;9.234;2023-04-15T07:12:08;13.13;;;4.38;;
40669;SDS011;26355;45.528;9.234;2023-04-15T07:14:34;13.63;;;4.82;;
40669;SDS011;26355;45.528;9.234;2023-04-15T07:17:00;14.93;;;4.40;;
40669;SDS011;26355;45.528;9.234;2023-04-15T07:19:26;11.50;;;4.18;;
40669;SDS011;26355;45.528;9.234;2023-04-15T07:21:52;13.25;;;4.80;;
40669;SDS011;26355;45.528;9.234;2023-04-15T07:24:17;14.00;;;4.57;;
40669;SDS011;26355;45.528;9.234;2023-04-15T07:26:44;14.25;;;5.28;;
40669;SDS011;26355;45.528;9.234;2023-04-15T07:29:10;11.70;;;4.47;;
40669;SDS011;26355;45.528;9.234;2023-04-15T07:31:36;14.38;;;5.00;;
40669;SDS011;26355;45.528;9.234;2023-04-15T07:34:02;15.75;;;5.18;;
40669;SDS011;26355;45.528;9.234;2023-04-15T07:36:29;16.70;;;4.85;;
40669;SDS011;26355;45.528;9.234;2023-04-15T07:38:55;15.43;;;4.97;;
40669;SDS011;26355;45.528;9.234;2023-04-15T07:41:22;14.65;;;5.78;;
40669;SDS011;26355;45.528;9.234;2023-04-15T07:43:47;14.05;;;4.90;;
40669;SDS011;26355;45.528;9.234;2023-04-15T07:46:13;14.85;;;5.10;;
40669;SDS011;26355;45.528;9.234;2023-04-15T07:48:40;15.18;;;4.90;;
40669;SDS011;26355;45.528;9.234;2023-04-15T07:51:06;14.57;;;5.75;;
40669;SDS011;26355;45.528;9.234;2023-04-15T07:53:32;16.02;;;5.03;;
40669;SDS011;26355;45.528;9.234;2023-04-15T07:55:58;14.68;;;4.88;;
40669;SDS011;26355;45.528;9.234;2023-04-15T07:58:23;14.88;;;5.10;;
40669;SDS011;26355;45.528;9.234;2023-04-15T08:00:49;14.52;;;5.13;;
40669;SDS011;26355;45.528;9.234;2023-04-15T08:03:15;15.05;;;5.20;;
40669;SDS011;26355;45.528;9.234;2023-04-15T08:05:41;14.55;;;4.97;;
40669;SDS011;26355;45.528;9.234;2023-04-15T08:08:07;13.57;;;4.75;;
40669;SDS011;26355;45.528;9.234;2023-04-15T08:10:32;13.25;;;4.78;;
40669;SDS011;26355;45.528;9.234;2023-04-15T08:12:58;12.27;;;4.90;;
40669;SDS011;26355;45.528;9.234;2023-04-15T08:15:24;15.30;;;4.60;;
40669;SDS011;26355;45.528;9.234;2023-04-15T08:17:50;14.98;;;5.25;;
40669;SDS011;26355;45.528;9.234;2023-04-15T08:20:16;13.90;;;4.78;;
40669;SDS011;26355;45.528;9.234;2023-04-15T08:22:41;13.85;;;5.15;;
40669;SDS011;26355;45.528;9.234;2023-04-15T08:25:07;14.45;;;4.88;;
40669;SDS011;26355;45.528;9.234;2023-04-15T08:27:34;15.80;;;5.15;;
40669;SDS011;26355;45.528;9.234;2023-04-15T08:30:00;13.82;;;4.90;;
40669;SDS011;26355;45.528;9.234;2023-04-15T08:32:25;13.77;;;4.82;;
40669;SDS011;26355;45.528;9.234;2023-04-15T08:34:51;17.38;;;5.38;;
40669;SDS011;26355;45.528;9.234;2023-04-15T08:37:17;15.13;;;5.25;;
40669;SDS011;26355;45.528;9.234;2023-04-15T08:39:42;14.88;;;4.70;;
40669;SDS011;26355;45.528;9.234;2023-04-15T08:42:16;12.95;;;4.50;;
40669;SDS011;26355;45.528;9.234;2023-04-15T08:44:43;15.05;;;5.50;;
40669;SDS011;26355;45.528;9.234;2023-04-15T08:47:12;15.40;;;4.93;;
40669;SDS011;26355;45.528;9.234;2023-04-15T08:49:41;11.77;;;4.70;;
40669;SDS011;26355;45.528;9.234;2023-04-15T08:52:07;14.57;;;5.10;;
40669;SDS011;26355;45.528;9.234;2023-04-15T08:54:33;14.07;;;4.60;;
40669;SDS011;26355;45.528;9.234;2023-04-15T08:57:00;14.48;;;5.28;;
40669;SDS011;26355;45.528;9.234;2023-04-15T08:59:26;14.82;;;4.63;;
40669;SDS011;26355;45.528;9.234;2023-04-15T09:01:54;14.80;;;5.22;;
40669;SDS011;26355;45.528;9.234;2023-04-15T09:04:22;13.98;;;4.65;;
40669;SDS011;26355;45.528;9.234;2023-04-15T09:06:47;12.65;;;4.53;;
40669;SDS011;26355;45.528;9.234;2023-04-15T09:09:13;14.02;;;5.13;;
40669;SDS011;26355;45.528;9.234;2023-04-15T09:11:39;14.18;;;4.35;;
40669;SDS011;26355;45.528;9.234;2023-04-15T09:16:55;16.45;;;5.20;;
40669;SDS011;26355;45.528;9.234;2023-04-15T09:19:22;12.05;;;4.22;;
40669;SDS011;26355;45.528;9.234;2023-04-15T09:21:49;14.80;;;4.20;;
40669;SDS011;26355;45.528;9.234;2023-04-15T09:24:15;11.90;;;4.35;;
40669;SDS011;26355;45.528;9.234;2023-04-15T09:26:41;13.40;;;4.40;;
40669;SDS011;26355;45.528;9.234;2023-04-15T09:29:08;13.80;;;4.82;;
40669;SDS011;26355;45.528;9.234;2023-04-15T09:31:38;14.68;;;4.32;;
40669;SDS011;26355;45.528;9.234;2023-04-15T09:34:05;13.98;;;3.75;;
40669;SDS011;26355;45.528;9.234;2023-04-15T09:39:12;12.70;;;4.20;;
40669;SDS011;26355;45.528;9.234;2023-04-15T09:41:38;13.15;;;4.43;;
40669;SDS011;26355;45.528;9.234;2023-04-15T09:44:04;14.68;;;4.60;;
40669;SDS011;26355;45.528;9.234;2023-04-15T09:46:43;15.02;;;4.63;;
40669;SDS011;26355;45.528;9.234;2023-04-15T09:49:10;11.80;;;3.90;;
40669;SDS011;26355;45.528;9.234;2023-04-15T09:51:36;12.43;;;4.07;;
40669;SDS011;26355;45.528;9.234;2023-04-15T09:54:02;13.52;;;4.30;;
40669;SDS011;26355;45.528;9.234;2023-04-15T09:56:35;12.13;;;4.20;;
40669;SDS011;26355;45.528;9.234;2023-04-15T09:59:05;12.00;;;4.18;;
40669;SDS011;26355;45.528;9.234;2023-04-15T10:01:31;12.13;;;4.25;;
40669;SDS011;26355;45.528;9.234;2023-04-15T10:03:57;14.65;;;3.78;;
40669;SDS011;26355;45.528;9.234;2023-04-15T10:06:24;13.55;;;4.50;;
40669;SDS011;26355;45.528;9.234;2023-04-15T10:08:50;13.57;;;4.00;;
40669;SDS011;26355;45.528;9.234;2023-04-15T10:11:17;12.05;;;4.35;;
40669;SDS011;26355;45.528;9.234;2023-04-15T10:13:45;14.02;;;4.38;;
40669;SDS011;26355;45.528;9.234;2023-04-15T10:16:13;13.48;;;4.30;;
40669;SDS011;26355;45.528;9.234;2023-04-15T10:18:44;13.18;;;4.20;;
40669;SDS011;26355;45.528;9.234;2023-04-15T10:21:18;12.57;;;4.82;;
40669;SDS011;26355;45.528;9.234;2023-04-15T10:23:46;14.15;;;4.75;;
40669;SDS011;26355;45.528;9.234;2023-04-15T10:26:12;15.43;;;4.60;;
40669;SDS011;26355;45.528;9.234;2023-04-15T10:28:39;14.00;;;3.85;;
40669;SDS011;26355;45.528;9.234;2023-04-15T10:31:05;13.98;;;4.05;;
40669;SDS011;26355;45.528;9.234;2023-04-15T10:33:31;14.05;;;4.15;;
40669;SDS011;26355;45.528;9.234;2023-04-15T10:35:58;15.65;;;4.18;;
40669;SDS011;26355;45.528;9.234;2023-04-15T10:38:34;15.70;;;4.00;;
40669;SDS011;26355;45.528;9.234;2023-04-15T10:46:33;14.18;;;4.50;;
40669;SDS011;26355;45.528;9.234;2023-04-15T10:49:08;13.18;;;3.65;;
40669;SDS011;26355;45.528;9.234;2023-04-15T10:51:36;15.98;;;4.25;;
40669;SDS011;26355;45.528;9.234;2023-04-15T10:54:05;14.15;;;3.80;;
40669;SDS011;26355;45.528;9.234;2023-04-15T10:56:37;16.67;;;4.50;;
40669;SDS011;26355;45.528;9.234;2023-04-15T10:59:05;14.05;;;3.90;;
40669;SDS011;26355;45.528;9.234;2023-04-15T11:07:36;15.05;;;5.35;;
40669;SDS011;26355;45.528;9.234;2023-04-15T11:10:54;13.18;;;4.35;;
40669;SDS011;26355;45.528;9.234;2023-04-15T11:13:05;17.08;;;4.38;;
40669;SDS011;26355;45.528;9.234;2023-04-15T11:15:41;14.38;;;4.63;;
40669;SDS011;26355;45.528;9.234;2023-04-15T11:18:18;15.13;;;4.20;;
40669;SDS011;26355;45.528;9.234;2023-04-15T11:20:49;13.27;;;3.80;;
40669;SDS011;26355;45.528;9.234;2023-04-15T11:23:17;12.60;;;3.78;;
40669;SDS011;26355;45.528;9.234;2023-04-15T11:28:10;15.70;;;4.45;;
40669;SDS011;26355;45.528;9.234;2023-04-15T11:30:36;16.60;;;3.63;;
40669;SDS011;26355;45.528;9.234;2023-04-15T11:33:04;15.38;;;3.65;;
40669;SDS011;26355;45.528;9.234;2023-04-15T11:35:30;14.35;;;3.67;;
40669;SDS011;26355;45.528;9.234;2023-04-15T11:37:56;13.70;;;3.78;;
40669;SDS011;26355;45.528;9.234;2023-04-15T11:40:26;17.20;;;4.32;;
40669;SDS011;26355;45.528;9.234;2023-04-15T11:45:58;15.02;;;3.35;;
40669;SDS011;26355;45.528;9.234;2023-04-15T11:48:25;14.98;;;4.25;;
40669;SDS011;26355;45.528;9.234;2023-04-15T11:51:05;15.00;;;4.55;;
40669;SDS011;26355;45.528;9.234;2023-04-15T11:56:08;13.65;;;3.70;;
40669;SDS011;26355;45.528;9.234;2023-04-15T11:58:36;14.57;;;3.60;;
40669;SDS011;26355;45.528;9.234;2023-04-15T12:01:02;15.77;;;3.90;;
40669;SDS011;26355;45.528;9.234;2023-04-15T12:03:29;12.80;;;3.78;;
40669;SDS011;26355;45.528;9.234;2023-04-15T12:13:52;14.02;;;3.40;;
40669;SDS011;26355;45.528;9.234;2023-04-15T12:16:20;13.85;;;3.78;;
40669;SDS011;26355;45.528;9.234;2023-04-15T12:18:49;13.90;;;3.20;;
40669;SDS011;26355;45.528;9.234;2023-04-15T12:21:23;17.40;;;4.18;;
40669;SDS011;26355;45.528;9.234;2023-04-15T12:23:50;16.83;;;4.13;;
40669;SDS011;26355;45.528;9.234;2023-04-15T12:26:27;13.93;;;3.65;;
40669;SDS011;26355;45.528;9.234;2023-04-15T12:29:05;14.13;;;3.88;;
40669;SDS011;26355;45.528;9.234;2023-04-15T12:31:34;18.15;;;4.05;;
40669;SDS011;26355;45.528;9.234;2023-04-15T12:34:01;15.68;;;4.15;;
40669;SDS011;26355;45.528;9.234;2023-04-15T12:36:29;13.10;;;3.65;;
40669;SDS011;26355;45.528;9.234;2023-04-15T12:39:00;14.43;;;4.32;;
40669;SDS011;26355;45.528;9.234;2023-04-15T12:41:27;14.20;;;4.30;;
40669;SDS011;26355;45.528;9.234;2023-04-15T12:43:52;15.48;;;4.03;;
40669;SDS011;26355;45.528;9.234;2023-04-15T12:46:18;16.15;;;4.40;;
40669;SDS011;26355;45.528;9.234;2023-04-15T12:48:44;14.57;;;4.13;;
40669;SDS011;26355;45.528;9.234;2023-04-15T12:51:10;17.90;;;4.85;;
40669;SDS011;26355;45.528;9.234;2023-04-15T12:53:35;17.85;;;4.43;;
40669;SDS011;26355;45.528;9.234;2023-04-15T12:56:01;15.70;;;4.28;;
40669;SDS011;26355;45.528;9.234;2023-04-15T12:58:27;16.33;;;4.97;;
40669;SDS011;26355;45.528;9.234;2023-04-15T13:00:52;14.25;;;4.55;;
40669;SDS011;26355;45.528;9.234;2023-04-15T13:03:18;15.27;;;3.78;;
40669;SDS011;26355;45.528;9.234;2023-04-15T13:05:44;15.23;;;3.97;;
40669;SDS011;26355;45.528;9.234;2023-04-15T13:08:09;18.92;;;4.28;;
40669;SDS011;26355;45.528;9.234;2023-04-15T13:10:35;13.73;;;3.70;;
40669;SDS011;26355;45.528;9.234;2023-04-15T13:13:01;20.00;;;4.30;;
40669;SDS011;26355;45.528;9.234;2023-04-15T13:15:28;15.43;;;3.70;;
40669;SDS011;26355;45.528;9.234;2023-04-15T13:17:53;15.48;;;4.10;;
40669;SDS011;26355;45.528;9.234;2023-04-15T13:20:19;14.27;;;3.88;;
40669;SDS011;26355;45.528;9.234;2023-04-15T13:22:45;14.80;;;3.95;;
40669;SDS011;26355;45.528;9.234;2023-04-15T13:25:10;12.38;;;3.70;;
40669;SDS011;26355;45.528;9.234;2023-04-15T13:27:36;11.82;;;3.63;;
40669;SDS011;26355;45.528;9.234;2023-04-15T13:30:02;14.88;;;4.18;;
40669;SDS011;26355;45.528;9.234;2023-04-15T13:32:29;15.45;;;4.20;;
40669;SDS011;26355;45.528;9.234;2023-04-15T13:34:54;13.50;;;3.65;;
40669;SDS011;26355;45.528;9.234;2023-04-15T13:37:21;14.40;;;3.60;;
40669;SDS011;26355;45.528;9.234;2023-04-15T13:39:50;12.88;;;3.58;;
40669;SDS011;26355;45.528;9.234;2023-04-15T13:42:16;14.75;;;3.83;;
40669;SDS011;26355;45.528;9.234;2023-04-15T13:44:42;14.95;;;3.92;;
40669;SDS011;26355;45.528;9.234;2023-04-15T13:47:07;13.98;;;3.33;;
40669;SDS011;26355;45.528;9.234;2023-04-15T13:49:51;15.88;;;3.80;;
40669;SDS011;26355;45.528;9.234;2023-04-15T13:52:18;14.47;;;3.93;;
40669;SDS011;26355;45.528;9.234;2023-04-15T13:54:43;15.23;;;4.05;;
40669;SDS011;26355;45.528;9.234;2023-04-15T13:57:09;11.98;;;3.58;;
40669;SDS011;26355;45.528;9.234;2023-04-15T13:59:34;15.35;;;3.90;;
40669;SDS011;26355;45.528;9.234;2023-04-15T14:02:00;18.30;;;3.75;;
40669;SDS011;26355;45.528;9.234;2023-04-15T14:04:26;16.63;;;3.55;;
40669;SDS011;26355;45.528;9.234;2023-04-15T14:06:51;14.75;;;3.30;;
40669;SDS011;26355;45.528;9.234;2023-04-15T14:09:17;14.43;;;3.50;;
40669;SDS011;26355;45.528;9.234;2023-04-15T14:11:43;14.52;;;3.55;;
40669;SDS011;26355;45.528;9.234;2023-04-15T14:14:08;11.40;;;3.15;;
40669;SDS011;26355;45.528;9.234;2023-04-15T14:16:34;13.20;;;3.60;;
40669;SDS011;26355;45.528;9.234;2023-04-15T14:19:00;13.30;;;3.78;;
40669;SDS011;26355;45.528;9.234;2023-04-15T14:21:26;13.60;;;3.53;;
40669;SDS011;26355;45.528;9.234;2023-04-15T14:23:52;11.57;;;3.25;;
40669;SDS011;26355;45.528;9.234;2023-04-15T14:26:18;13.02;;;3.83;;
40669;SDS011;26355;45.528;9.234;2023-04-15T14:28:44;12.95;;;3.95;;
40669;SDS011;26355;45.528;9.234;2023-04-15T14:31:10;12.02;;;3.10;;
40669;SDS011;26355;45.528;9.234;2023-04-15T14:33:35;12.98;;;3.47;;
40669;SDS011;26355;45.528;9.234;2023-04-15T14:36:01;14.45;;;3.22;;
40669;SDS011;26355;45.528;9.234;2023-04-15T14:38:27;14.18;;;3.63;;
40669;SDS011;26355;45.528;9.234;2023-04-15T14:40:52;12.95;;;3.67;;
40669;SDS011;26355;45.528;9.234;2023-04-15T14:43:19;13.77;;;3.40;;
40669;SDS011;26355;45.528;9.234;2023-04-15T14:45:45;14.75;;;3.72;;
40669;SDS011;26355;45.528;9.234;2023-04-15T14:48:10;15.27;;;4.10;;
40669;SDS011;26355;45.528;9.234;2023-04-15T14:50:36;15.40;;;4.18;;
40669;SDS011;26355;45.528;9.234;2023-04-15T14:53:02;14.70;;;3.90;;
40669;SDS011;26355;45.528;9.234;2023-04-15T14:55:28;17.02;;;4.65;;
40669;SDS011;26355;45.528;9.234;2023-04-15T14:57:54;15.38;;;4.63;;
40669;SDS011;26355;45.528;9.234;2023-04-15T15:00:19;12.27;;;4.10;;
40669;SDS011;26355;45.528;9.234;2023-04-15T15:02:45;14.38;;;4.57;;
40669;SDS011;26355;45.528;9.234;2023-04-15T15:05:13;13.68;;;3.80;;